createdAt,value
2023-03-24T00:13:36.095Z,59.60
2023-03-24T00:16:46.687Z,59.70
2023-03-24T00:20:35.156Z,59.90
2023-03-24T00:48:03.723Z,59.90
2023-03-24T00:51:44.078Z,59.90
2023-03-24T00:55:01.860Z,60.00
2023-03-24T00:58:35.989Z,60.00
2023-03-24T01:01:47.072Z,60.10
2023-03-24T01:05:43.189Z,60.10
2023-03-24T01:09:18.931Z,60.10
2023-03-24T01:26:27.555Z,60.00
2023-03-24T01:32:35.892Z,60.10
2023-03-24T01:35:52.093Z,60.20
2023-03-24T01:47:29.245Z,60.20
2023-03-24T01:51:46.361Z,60.00
2023-03-24T01:55:35.959Z,60.20
2023-03-24T01:58:39.393Z,60.10
2023-03-24T02:01:46.878Z,60.20
2023-03-24T02:05:17.943Z,60.20
2023-03-24T02:08:35.016Z,60.20
2023-03-24T02:11:59.271Z,60.20
2023-03-24T02:15:11.025Z,60.30
2023-03-24T02:37:04.503Z,60.20
2023-03-24T02:40:39.027Z,60.30
2023-03-24T02:44:14.050Z,60.30
2023-03-24T02:48:02.267Z,61.30
2023-03-24T02:51:42.591Z,60.40
2023-03-24T02:55:08.641Z,60.50
2023-03-24T02:58:46.701Z,60.50
2023-03-24T03:02:10.677Z,60.30
2023-03-24T03:05:38.805Z,60.50
2023-03-24T03:09:19.321Z,60.50
2023-03-24T03:15:56.650Z,60.50
2023-03-24T03:19:03.195Z,60.50
2023-03-24T03:22:09.108Z,60.50
2023-03-24T03:25:17.546Z,60.50
2023-03-24T03:28:45.958Z,60.50
2023-03-24T03:45:17.470Z,60.40
2023-03-24T03:48:37.932Z,60.50
2023-03-24T03:51:46.840Z,60.50
2023-03-24T03:54:51.566Z,60.60
2023-03-24T03:57:55.316Z,60.60
2023-03-24T04:01:23.147Z,60.60
2023-03-24T04:05:26.977Z,60.50
2023-03-24T04:09:08.765Z,60.60
2023-03-24T04:12:18.041Z,60.60
2023-03-24T04:16:18.185Z,60.60
2023-03-24T04:19:47.521Z,60.60
2023-03-24T04:23:07.867Z,60.60
2023-03-24T04:26:06.556Z,60.50
2023-03-24T04:29:35.405Z,60.60
2023-03-24T04:32:52.845Z,60.60
2023-03-24T04:36:03.511Z,60.70
2023-03-24T04:39:17.817Z,60.60
2023-03-24T04:45:03.140Z,60.70
2023-03-24T04:48:01.036Z,60.70
2023-03-24T04:50:53.840Z,60.60
2023-03-24T04:53:21.656Z,60.60
2023-03-24T04:56:18.246Z,61.70
2023-03-24T04:59:01.882Z,60.70
2023-03-24T05:01:31.370Z,60.60
2023-03-24T05:04:20.207Z,60.70
2023-03-24T05:06:49.682Z,60.70
2023-03-24T05:09:25.400Z,60.70
2023-03-24T05:11:53.315Z,60.70
2023-03-24T05:14:22.773Z,60.80
2023-03-24T05:16:51.942Z,60.70
2023-03-24T05:19:21.144Z,60.70
2023-03-24T05:21:50.257Z,60.70
2023-03-24T05:24:17.592Z,61.50
2023-03-24T05:26:45.864Z,60.70
2023-03-24T05:29:19.505Z,60.60
2023-03-24T05:31:47.003Z,60.70
2023-03-24T05:34:19.242Z,60.70
2023-03-24T05:37:07.099Z,60.80
2023-03-24T05:39:42.652Z,60.60
2023-03-24T05:42:43.754Z,60.60
2023-03-24T05:45:19.073Z,60.70
2023-03-24T05:48:02.799Z,60.60
2023-03-24T05:50:53.914Z,60.70
2023-03-24T05:53:22.582Z,60.70
2023-03-24T05:56:13.938Z,60.70
2023-03-24T05:59:11.819Z,60.60
2023-03-24T06:02:08.674Z,60.60
2023-03-24T06:04:49.981Z,60.70
2023-03-24T06:07:26.609Z,60.70
2023-03-24T06:09:58.271Z,60.70
2023-03-24T06:12:27.511Z,60.70
2023-03-24T06:15:04.751Z,60.80
2023-03-24T06:17:33.247Z,60.70
2023-03-24T06:20:14.105Z,60.70
2023-03-24T06:22:48.001Z,60.70
2023-03-24T06:25:21.966Z,60.80
2023-03-24T06:28:03.988Z,60.80
2023-03-24T06:30:37.506Z,60.80
2023-03-24T06:33:08.272Z,60.70
2023-03-24T06:35:36.666Z,60.70
2023-03-24T06:38:08.708Z,60.90
2023-03-24T06:40:37.804Z,60.90
2023-03-24T06:43:06.664Z,60.90
2023-03-24T06:45:39.620Z,60.90
2023-03-24T06:48:12.469Z,60.80
2023-03-24T06:50:41.328Z,60.80
2023-03-24T06:53:11.019Z,60.90
2023-03-24T06:55:39.785Z,60.90
2023-03-24T06:58:11.577Z,60.90
2023-03-24T07:01:03.267Z,60.80
2023-03-24T07:03:49.813Z,60.80
2023-03-24T07:06:18.539Z,60.80
2023-03-24T07:08:54.386Z,60.70
2023-03-24T07:11:24.704Z,60.80
2023-03-24T07:13:55.504Z,60.90
2023-03-24T07:16:27.572Z,60.70
2023-03-24T07:19:36.235Z,60.80
2023-03-24T07:22:23.778Z,60.80
2023-03-24T07:25:14.589Z,60.90
2023-03-24T07:27:56.408Z,60.90
2023-03-24T07:30:37.290Z,60.90
2023-03-24T07:33:10.965Z,60.90
2023-03-24T07:35:40.537Z,60.90
2023-03-24T07:38:08.999Z,60.90
2023-03-24T07:40:45.795Z,60.90
2023-03-24T07:43:14.525Z,60.90
2023-03-24T07:46:09.124Z,61.00
2023-03-24T07:48:43.435Z,60.80
2023-03-24T07:51:11.996Z,61.00
2023-03-24T07:53:54.560Z,60.90
2023-03-24T07:56:34.737Z,60.90
2023-03-24T07:59:03.943Z,60.90
2023-03-24T08:02:07.534Z,60.90
2023-03-24T08:05:01.107Z,61.00
2023-03-24T08:07:56.059Z,60.90
2023-03-24T08:10:34.612Z,61.90
2023-03-24T08:13:06.510Z,60.90
2023-03-24T08:15:35.497Z,60.90
2023-03-24T08:18:05.238Z,60.90
2023-03-24T08:20:40.994Z,61.00
2023-03-24T08:23:17.952Z,60.90
2023-03-24T08:29:18.456Z,61.00
2023-03-24T08:31:46.820Z,60.90
2023-03-24T08:34:16.137Z,61.00
2023-03-24T08:36:48.058Z,61.00
2023-03-24T08:39:22.853Z,61.00
2023-03-24T08:41:51.439Z,60.90
2023-03-24T08:44:20.397Z,60.90
2023-03-24T08:46:54.098Z,61.00
2023-03-24T08:49:22.508Z,60.90
2023-03-24T08:51:51.696Z,60.90
2023-03-24T08:54:23.786Z,60.90
2023-03-24T08:56:52.039Z,60.90
2023-03-24T08:59:38.592Z,60.80
2023-03-24T09:02:21.896Z,60.80
2023-03-24T09:04:54.135Z,60.80
2023-03-24T09:07:21.900Z,60.80
2023-03-24T09:09:49.055Z,60.80
2023-03-24T09:12:16.558Z,60.70
2023-03-24T09:14:49.845Z,60.70
2023-03-24T09:17:18.128Z,60.80
2023-03-24T09:19:47.234Z,60.80
2023-03-24T09:22:14.450Z,60.80
2023-03-24T09:24:41.770Z,60.80
2023-03-24T09:27:09.290Z,60.90
2023-03-24T09:29:39.325Z,60.80
2023-03-24T09:32:09.075Z,60.80
2023-03-24T09:34:38.401Z,60.80
2023-03-24T09:37:07.529Z,60.80
2023-03-24T09:39:36.828Z,61.70
2023-03-24T09:42:15.964Z,60.70
2023-03-24T09:44:55.954Z,60.70
2023-03-24T09:47:42.010Z,60.70
2023-03-24T09:50:29.123Z,60.70
2023-03-24T09:53:08.462Z,60.70
2023-03-24T09:55:39.908Z,60.70
2023-03-24T09:58:09.042Z,60.70
2023-03-24T10:00:43.575Z,60.70
2023-03-24T10:03:23.454Z,60.70
2023-03-24T10:06:05.325Z,60.70
2023-03-24T10:08:46.700Z,60.70
2023-03-24T10:11:41.070Z,60.70
2023-03-24T10:14:22.788Z,60.70
2023-03-24T10:17:16.840Z,60.70
2023-03-24T10:20:01.062Z,60.70
2023-03-24T10:22:55.248Z,60.70
2023-03-24T10:25:43.864Z,60.70
2023-03-24T10:28:35.533Z,60.70
2023-03-24T10:31:13.937Z,60.70
2023-03-24T10:33:45.115Z,60.70
2023-03-24T10:36:18.541Z,60.60
2023-03-24T10:38:46.835Z,60.70
2023-03-24T10:41:23.973Z,60.70
2023-03-24T10:43:53.476Z,60.70
2023-03-24T10:46:36.116Z,60.70
2023-03-24T10:49:20.493Z,60.70
2023-03-24T10:51:56.668Z,60.60
2023-03-24T10:54:26.734Z,60.70
2023-03-24T10:57:00.824Z,60.70
2023-03-24T10:59:33.388Z,60.60
2023-03-24T11:02:18.292Z,60.70
2023-03-24T11:05:02.693Z,60.60
2023-03-24T11:07:37.287Z,60.60
2023-03-24T11:10:11.888Z,60.60
2023-03-24T11:12:42.521Z,60.60
2023-03-24T11:15:37.474Z,60.70
2023-03-24T11:18:15.642Z,60.70
2023-03-24T11:21:07.178Z,60.60
2023-03-24T11:23:46.083Z,60.70
2023-03-24T11:26:24.167Z,60.60
2023-03-24T11:29:01.739Z,60.60
2023-03-24T11:31:32.764Z,60.60
2023-03-24T11:34:13.464Z,60.60
2023-03-24T11:36:58.269Z,60.60
2023-03-24T11:39:28.291Z,60.60
2023-03-24T11:42:19.089Z,60.60
2023-03-24T11:44:55.388Z,60.70
2023-03-24T11:47:33.729Z,60.50
2023-03-24T11:50:10.598Z,60.60
2023-03-24T11:53:13.321Z,60.50
2023-03-24T11:56:02.008Z,60.60
2023-03-24T11:58:41.156Z,60.60
2023-03-24T12:01:20.258Z,60.30
2023-03-24T12:04:21.149Z,60.20
2023-03-24T12:07:14.543Z,60.30
2023-03-24T12:09:55.298Z,60.20
2023-03-24T12:13:01.782Z,60.30
2023-03-24T12:15:48.534Z,60.20
2023-03-24T12:18:34.532Z,60.30
2023-03-24T12:25:55.342Z,60.50
2023-03-24T12:28:44.114Z,60.30
2023-03-24T12:31:34.445Z,60.20
2023-03-24T12:34:59.695Z,60.20
2023-03-24T12:37:29.421Z,60.20
2023-03-24T12:40:27.999Z,60.20
2023-03-24T12:43:12.901Z,60.30
2023-03-24T12:45:52.635Z,60.30
2023-03-24T12:48:46.105Z,60.30
2023-03-24T12:51:39.360Z,60.10
2023-03-24T12:54:26.068Z,60.10
2023-03-24T12:57:03.684Z,60.00
2023-03-24T12:59:47.229Z,60.10
2023-03-24T13:11:26.611Z,60.20
2023-03-24T13:39:29.098Z,60.70
2023-03-24T13:46:34.596Z,60.60
2023-03-24T13:59:21.988Z,60.70
2023-03-24T14:02:40.741Z,60.70
2023-03-24T14:06:09.051Z,60.70
2023-03-24T14:17:24.586Z,60.50
2023-03-24T14:20:08.507Z,63.10
2023-03-24T14:27:43.370Z,61.80
2023-03-24T14:31:06.820Z,61.50
2023-03-24T14:33:40.587Z,61.50
2023-03-24T14:39:53.306Z,61.50
2023-03-24T14:42:57.534Z,61.40
2023-03-24T14:45:33.181Z,61.40
2023-03-24T14:48:02.884Z,61.60
2023-03-24T14:50:31.692Z,61.50
2023-03-24T14:53:03.480Z,61.50
2023-03-24T14:55:52.274Z,61.60
2023-03-24T14:58:40.014Z,61.60
2023-03-24T15:01:12.841Z,61.50
2023-03-24T15:04:11.929Z,61.50
2023-03-24T15:06:51.945Z,61.50
2023-03-24T15:09:22.578Z,61.60
2023-03-24T15:11:53.353Z,61.50
2023-03-24T15:19:01.942Z,61.50
2023-03-24T15:21:34.393Z,61.40
2023-03-24T15:24:17.912Z,61.50
2023-03-24T15:26:47.639Z,61.50
2023-03-24T15:29:16.873Z,61.50
2023-03-24T15:31:47.921Z,61.50
2023-03-24T15:34:40.533Z,61.50
2023-03-24T15:37:39.207Z,61.50
2023-03-24T15:40:32.928Z,61.50
2023-03-24T15:43:07.344Z,61.40
2023-03-24T15:45:51.041Z,61.50
2023-03-24T15:48:26.392Z,61.50
2023-03-24T15:51:00.242Z,61.40
2023-03-24T15:53:45.280Z,61.50
2023-03-24T15:56:36.929Z,61.50
2023-03-24T15:59:12.489Z,61.40
2023-03-24T16:01:45.109Z,61.40
2023-03-24T16:04:18.905Z,61.40
2023-03-24T16:06:54.841Z,61.40
2023-03-24T16:09:28.506Z,61.40
2023-03-24T16:11:56.203Z,61.50
2023-03-24T16:14:30.047Z,61.40
2023-03-24T16:17:03.107Z,61.50
2023-03-24T16:19:30.782Z,61.60
2023-03-24T16:21:57.894Z,61.40
2023-03-24T16:24:25.024Z,61.50
2023-03-24T16:26:51.963Z,61.40
2023-03-24T16:29:23.969Z,61.40
2023-03-24T16:31:53.723Z,61.50
2023-03-24T16:34:22.278Z,61.40
2023-03-24T16:36:52.005Z,61.40
2023-03-24T16:39:28.021Z,61.50
2023-03-24T16:41:56.625Z,62.30
2023-03-24T16:44:24.762Z,61.40
2023-03-24T16:46:53.897Z,61.40
2023-03-24T16:49:22.939Z,61.50
2023-03-24T16:51:52.540Z,61.40
2023-03-24T16:54:20.790Z,61.40
2023-03-24T16:56:48.080Z,61.40
2023-03-24T16:59:16.061Z,61.40
2023-03-24T17:01:45.903Z,61.40
2023-03-24T17:04:19.700Z,61.40
2023-03-24T17:06:55.461Z,61.40
2023-03-24T17:09:23.039Z,62.30
2023-03-24T17:12:01.070Z,61.40
2023-03-24T17:14:30.802Z,61.40
2023-03-24T17:16:57.968Z,61.40
2023-03-24T17:19:25.640Z,61.50
2023-03-24T17:22:02.135Z,61.30
2023-03-24T17:24:35.567Z,61.40
2023-03-24T17:27:03.357Z,61.40
2023-03-24T17:29:31.601Z,61.40
2023-03-24T17:31:58.593Z,61.40
2023-03-24T17:34:25.713Z,61.30
2023-03-24T17:36:52.935Z,61.40
2023-03-24T17:39:21.939Z,61.40
2023-03-24T17:41:49.243Z,61.40
2023-03-24T17:44:16.405Z,61.40
2023-03-24T17:46:43.655Z,61.40
2023-03-24T17:49:10.839Z,61.40
2023-03-24T17:51:38.055Z,61.40
2023-03-24T17:54:06.645Z,61.40
2023-03-24T17:56:33.853Z,61.50
2023-03-24T17:59:03.274Z,61.40
2023-03-24T18:01:30.989Z,61.40
2023-03-24T18:03:58.354Z,61.40
2023-03-24T18:06:27.425Z,61.30
2023-03-24T18:08:54.921Z,61.40
2023-03-24T18:11:22.177Z,61.40
2023-03-24T18:13:49.271Z,61.40
2023-03-24T18:16:22.025Z,61.40
2023-03-24T18:18:51.608Z,61.40
2023-03-24T18:21:19.484Z,61.30
2023-03-24T18:23:47.179Z,61.40
2023-03-24T18:26:16.429Z,61.40
2023-03-24T18:28:45.695Z,61.40
2023-03-24T18:31:20.355Z,61.40
2023-03-24T18:33:49.607Z,61.40
2023-03-24T18:36:26.364Z,61.30
2023-03-24T18:38:57.648Z,61.40
2023-03-24T18:41:27.003Z,61.40
2023-03-24T18:43:59.521Z,61.40
2023-03-24T18:46:27.576Z,61.40
2023-03-24T18:48:56.323Z,61.50
2023-03-24T18:51:28.111Z,61.50
2023-03-24T18:53:55.716Z,61.40
2023-03-24T18:56:24.395Z,61.40
2023-03-24T18:58:52.439Z,61.50
2023-03-24T19:01:23.008Z,61.40
2023-03-24T19:03:52.023Z,61.40
2023-03-24T19:06:19.954Z,61.50
2023-03-24T19:08:51.859Z,61.50
2023-03-24T19:11:19.356Z,61.50
2023-03-24T19:13:49.749Z,61.40
2023-03-24T19:16:19.281Z,61.50
2023-03-24T19:18:48.347Z,61.50
2023-03-24T19:21:16.958Z,61.50
2023-03-24T19:23:46.762Z,61.50
2023-03-24T19:26:16.419Z,61.50
2023-03-24T19:28:44.123Z,61.50
2023-03-24T19:31:16.742Z,61.50
2023-03-24T19:33:44.914Z,61.50
2023-03-24T19:36:14.003Z,61.60
2023-03-24T19:38:41.316Z,61.60
2023-03-24T19:41:12.870Z,61.50
2023-03-24T19:43:40.315Z,61.50
2023-03-24T19:46:07.795Z,61.60
2023-03-24T19:48:35.619Z,61.50
2023-03-24T19:51:04.620Z,61.70
2023-03-24T19:53:32.042Z,61.50
2023-03-24T19:55:59.859Z,61.50
2023-03-24T19:58:26.918Z,61.50
2023-03-24T20:00:54.229Z,61.50
2023-03-24T20:03:21.828Z,61.60
2023-03-24T20:05:50.184Z,61.60
2023-03-24T20:08:19.247Z,61.60
2023-03-24T20:10:46.853Z,61.60
2023-03-24T20:13:14.212Z,61.70
2023-03-24T20:15:41.435Z,61.60
2023-03-24T20:18:10.700Z,61.70
2023-03-24T20:20:39.140Z,61.70
2023-03-24T20:23:06.555Z,61.70
2023-03-24T20:25:33.845Z,61.70
2023-03-24T20:28:01.473Z,61.70
2023-03-24T20:30:31.075Z,61.70
2023-03-24T20:32:58.711Z,61.70
2023-03-24T20:35:28.226Z,61.70
2023-03-24T20:37:55.801Z,61.70
2023-03-24T20:40:24.894Z,61.80
2023-03-24T20:42:52.437Z,61.70
2023-03-24T20:45:19.820Z,61.70
2023-03-24T20:47:47.139Z,61.80
2023-03-24T20:50:14.475Z,61.70
2023-03-24T20:52:41.808Z,61.70
2023-03-24T20:55:11.408Z,61.70
2023-03-24T20:57:38.719Z,61.80
2023-03-24T21:00:14.017Z,61.80
2023-03-24T21:02:43.885Z,61.80
2023-03-24T21:05:11.117Z,61.80
2023-03-24T21:07:42.359Z,61.80
2023-03-24T21:10:10.289Z,61.80
2023-03-24T21:12:52.700Z,61.80
2023-03-24T21:15:23.235Z,61.80
2023-03-24T21:17:50.675Z,61.70
2023-03-24T21:20:19.031Z,61.80
2023-03-24T21:22:55.885Z,61.90
2023-03-24T21:25:28.216Z,61.90
2023-03-24T21:27:56.218Z,61.80
2023-03-24T21:30:24.911Z,61.90
2023-03-24T21:32:54.983Z,61.90
2023-03-24T21:35:23.304Z,61.90
2023-03-24T21:37:53.440Z,61.90
2023-03-24T21:40:24.519Z,61.90
2023-03-24T21:42:53.754Z,61.90
2023-03-24T21:45:23.389Z,61.90
2023-03-24T21:47:51.103Z,61.90
2023-03-24T21:50:23.227Z,61.90
2023-03-24T21:52:54.770Z,62.00
2023-03-24T21:55:23.258Z,62.00
2023-03-24T21:57:51.857Z,62.00
2023-03-24T22:00:25.025Z,61.90
2023-03-24T22:02:54.351Z,61.90
2023-03-24T22:05:25.018Z,61.90
2023-03-24T22:07:52.654Z,61.80
2023-03-24T22:10:22.816Z,61.90
2023-03-24T22:12:52.255Z,61.90
2023-03-24T22:15:20.941Z,61.90
2023-03-24T22:17:48.014Z,61.90
2023-03-24T22:20:15.860Z,61.90
2023-03-24T22:22:43.316Z,61.90
2023-03-24T22:25:13.876Z,61.90
2023-03-24T22:27:41.368Z,61.90
2023-03-24T22:30:12.455Z,61.90
2023-03-24T22:32:40.442Z,61.90
2023-03-24T22:35:08.542Z,61.90
2023-03-24T22:37:35.574Z,61.90
2023-03-24T22:40:03.410Z,61.90
2023-03-24T22:42:30.813Z,61.90
2023-03-24T22:44:57.872Z,62.10
2023-03-24T22:47:25.126Z,62.00
2023-03-24T22:49:52.217Z,62.10
2023-03-24T22:52:19.165Z,62.00
2023-03-24T22:54:46.363Z,62.00
2023-03-24T22:57:13.555Z,62.00
2023-03-24T22:59:40.889Z,62.00
2023-03-24T23:02:10.375Z,61.90
2023-03-24T23:04:40.331Z,62.00
2023-03-24T23:07:07.689Z,62.00
2023-03-24T23:09:36.505Z,62.00
2023-03-24T23:12:04.500Z,62.00
2023-03-24T23:14:31.768Z,62.00
2023-03-24T23:16:59.243Z,62.00
2023-03-24T23:19:26.443Z,62.10
2023-03-24T23:21:53.463Z,62.10
2023-03-24T23:24:20.643Z,62.10
2023-03-24T23:26:47.796Z,62.80
2023-03-24T23:29:14.800Z,62.10
2023-03-24T23:31:41.963Z,62.00
2023-03-24T23:34:11.750Z,62.10
2023-03-24T23:36:44.813Z,62.00
2023-03-24T23:39:12.254Z,61.90
2023-03-24T23:41:39.398Z,61.90
2023-03-24T23:44:06.581Z,62.10
2023-03-24T23:46:33.789Z,62.10
2023-03-24T23:49:01.532Z,62.00
2023-03-24T23:51:28.502Z,62.10
2023-03-24T23:53:55.621Z,62.10
2023-03-24T23:56:22.922Z,62.20
2023-03-24T23:58:50.253Z,62.10
